createdAt,value
2022-09-10T00:00:45.054Z,100.00
2022-09-10T00:03:15.545Z,100.00
2022-09-10T00:06:06.545Z,100.00
2022-09-10T00:08:38.193Z,100.00
2022-09-10T00:11:10.827Z,100.00
2022-09-10T00:13:41.909Z,100.00
2022-09-10T00:16:15.266Z,100.00
2022-09-10T00:18:47.792Z,100.00
2022-09-10T00:21:20.488Z,100.00
2022-09-10T00:23:53.231Z,100.00
2022-09-10T00:26:27.489Z,100.00
2022-09-10T00:29:01.367Z,100.00
2022-09-10T00:31:34.269Z,100.00
2022-09-10T00:34:06.063Z,100.00
2022-09-10T00:36:39.443Z,100.00
2022-09-10T00:39:16.025Z,100.00
2022-09-10T00:41:48.352Z,100.00
2022-09-10T00:44:44.196Z,100.00
2022-09-10T00:47:17.405Z,100.00
2022-09-10T00:49:51.504Z,100.00
2022-09-10T00:52:22.392Z,100.00
2022-09-10T00:54:52.743Z,100.00
2022-09-10T00:57:24.541Z,100.00
2022-09-10T00:59:57.711Z,100.00
2022-09-10T01:02:28.509Z,100.00
2022-09-10T01:04:59.307Z,100.00
2022-09-10T01:07:31.984Z,100.00
2022-09-10T01:10:05.137Z,100.00
2022-09-10T01:12:44.292Z,100.00
2022-09-10T01:15:38.231Z,100.00
2022-09-10T01:18:17.255Z,100.00
2022-09-10T01:20:53.471Z,100.00
2022-09-10T01:23:37.061Z,100.00
2022-09-10T01:26:28.370Z,100.00
2022-09-10T01:29:04.353Z,100.00
2022-09-10T01:31:50.587Z,100.00
2022-09-10T01:34:23.878Z,100.00
2022-09-10T01:36:57.163Z,100.00
2022-09-10T01:39:28.231Z,100.00
2022-09-10T01:41:58.926Z,100.00
2022-09-10T01:44:43.518Z,100.00
2022-09-10T01:47:28.615Z,100.00
2022-09-10T01:50:33.368Z,100.00
2022-09-10T01:53:27.642Z,100.00
2022-09-10T01:56:29.496Z,100.00
2022-09-10T01:59:02.634Z,100.00
2022-09-10T02:01:45.114Z,100.00
2022-09-10T02:04:17.838Z,100.00
2022-09-10T02:06:50.571Z,100.00
2022-09-10T02:09:21.104Z,100.00
2022-09-10T02:11:54.291Z,100.00
2022-09-10T02:14:25.383Z,100.00
2022-09-10T02:16:57.353Z,100.00
2022-09-10T02:19:28.404Z,100.00
2022-09-10T02:21:59.805Z,100.00
2022-09-10T02:24:30.058Z,100.00
2022-09-10T02:27:00.756Z,100.00
2022-09-10T02:29:31.139Z,100.00
2022-09-10T02:32:01.585Z,100.00
2022-09-10T02:34:33.060Z,100.00
2022-09-10T02:37:03.941Z,100.00
2022-09-10T02:39:34.285Z,100.00
2022-09-10T02:42:08.237Z,100.00
2022-09-10T02:44:38.982Z,100.00
2022-09-10T02:47:12.444Z,100.00
2022-09-10T02:49:42.584Z,99.89
2022-09-10T02:52:12.879Z,99.89
2022-09-10T02:54:43.580Z,100.00
2022-09-10T02:57:13.833Z,99.51
2022-09-10T02:59:44.132Z,100.00
2022-09-10T03:02:14.551Z,100.00
2022-09-10T03:04:45.606Z,100.00
2022-09-10T03:07:15.974Z,100.00
2022-09-10T03:09:49.029Z,100.00
2022-09-10T03:12:19.134Z,100.00
2022-09-10T03:14:49.539Z,100.00
2022-09-10T03:17:19.935Z,100.00
2022-09-10T03:19:50.339Z,100.00
2022-09-10T03:22:20.603Z,100.00
2022-09-10T03:24:50.894Z,100.00
2022-09-10T03:27:21.271Z,100.00
2022-09-10T03:29:51.553Z,100.00
2022-09-10T03:32:21.916Z,100.00
2022-09-10T03:34:52.351Z,100.00
2022-09-10T03:37:22.644Z,100.00
2022-09-10T03:39:52.983Z,100.00
2022-09-10T03:42:23.302Z,100.00
2022-09-10T03:44:53.882Z,100.00
2022-09-10T03:47:24.527Z,100.00
2022-09-10T03:49:54.882Z,100.00
2022-09-10T03:52:26.304Z,100.00
2022-09-10T03:54:56.913Z,100.00
2022-09-10T03:57:27.257Z,100.00
2022-09-10T03:59:57.536Z,100.00
2022-09-10T04:02:27.945Z,100.00
2022-09-10T04:04:58.377Z,100.00
2022-09-10T04:07:28.563Z,100.00
2022-09-10T04:09:58.860Z,100.00
2022-09-10T04:12:30.474Z,100.00
2022-09-10T04:15:01.022Z,100.00
2022-09-10T04:17:31.492Z,100.00
2022-09-10T04:20:01.890Z,100.00
2022-09-10T04:22:32.465Z,100.00
2022-09-10T04:25:02.984Z,100.00
2022-09-10T04:27:33.357Z,100.00
2022-09-10T04:30:03.609Z,100.00
2022-09-10T04:32:34.193Z,99.24
2022-09-10T04:35:05.539Z,99.41
2022-09-10T04:37:36.527Z,100.00
2022-09-10T04:42:49.246Z,98.36
2022-09-10T04:45:19.607Z,98.29
2022-09-10T04:47:49.849Z,98.29
2022-09-10T04:50:20.346Z,97.47
2022-09-10T04:52:50.563Z,97.59
2022-09-10T04:55:20.950Z,96.64
2022-09-10T04:57:51.276Z,94.93
2022-09-10T05:00:21.664Z,95.00
2022-09-10T05:02:51.847Z,95.70
2022-09-10T05:05:22.188Z,94.68
2022-09-10T05:07:52.609Z,95.44
2022-09-10T05:10:23.299Z,93.90
2022-09-10T05:12:54.537Z,96.99
2022-09-10T05:15:25.486Z,96.16
2022-09-10T05:17:55.872Z,95.73
2022-09-10T05:20:26.676Z,95.03
2022-09-10T05:22:57.241Z,95.03
2022-09-10T05:25:27.848Z,95.29
2022-09-10T05:27:58.422Z,94.60
2022-09-10T05:30:30.543Z,95.03
2022-09-10T05:33:02.005Z,95.34
2022-09-10T05:35:32.625Z,96.18
2022-09-10T05:38:03.821Z,96.18
2022-09-10T05:40:38.906Z,96.93
2022-09-10T05:43:10.344Z,98.99
2022-09-10T05:45:42.657Z,97.37
2022-09-10T05:48:13.164Z,97.37
2022-09-10T05:50:44.816Z,96.96
2022-09-10T05:53:15.659Z,96.29
2022-09-10T05:55:46.402Z,95.90
2022-09-10T05:58:16.746Z,97.43
2022-09-10T06:00:54.761Z,98.13
2022-09-10T06:03:25.110Z,96.38
2022-09-10T06:05:55.767Z,96.38
2022-09-10T06:08:26.706Z,95.77
2022-09-10T06:11:00.550Z,95.91
2022-09-10T06:13:31.454Z,95.91
2022-09-10T06:16:02.433Z,97.94
2022-09-10T06:18:45.246Z,98.08
2022-09-10T06:21:17.746Z,97.79
2022-09-10T06:23:49.559Z,97.79
2022-09-10T06:26:19.769Z,97.14
2022-09-10T06:28:51.580Z,96.41
2022-09-10T06:31:21.958Z,95.40
2022-09-10T06:33:52.225Z,94.46
2022-09-10T06:36:22.817Z,95.62
2022-09-10T06:38:53.026Z,95.49
2022-09-10T06:41:23.713Z,95.49
2022-09-10T06:43:54.521Z,94.17
2022-09-10T06:47:01.715Z,94.17
2022-09-10T06:48:57.571Z,95.88
2022-09-10T06:51:45.829Z,95.31
2022-09-10T06:54:20.911Z,95.61
2022-09-10T06:56:54.629Z,95.61
2022-09-10T06:59:24.951Z,94.40
2022-09-10T07:01:55.658Z,94.40
2022-09-10T07:04:25.884Z,94.29
2022-09-10T07:06:56.640Z,94.99
2022-09-10T07:09:26.975Z,94.99
2022-09-10T07:11:58.883Z,95.88
2022-09-10T07:14:29.355Z,95.88
2022-09-10T07:17:00.100Z,95.69
2022-09-10T07:19:30.688Z,95.69
2022-09-10T07:22:01.023Z,94.73
2022-09-10T07:24:31.701Z,95.24
2022-09-10T07:27:02.097Z,95.24
2022-09-10T07:29:33.333Z,95.05
2022-09-10T07:32:03.805Z,94.78
2022-09-10T07:34:34.501Z,94.78
2022-09-10T07:37:05.125Z,96.40
2022-09-10T07:39:36.030Z,96.68
2022-09-10T07:42:06.712Z,96.76
2022-09-10T07:44:37.818Z,96.15
2022-09-10T07:47:08.136Z,96.61
2022-09-10T07:49:39.483Z,96.15
2022-09-10T07:52:09.726Z,97.38
2022-09-10T07:54:40.022Z,97.20
2022-09-10T07:57:10.700Z,97.20
2022-09-10T07:59:41.056Z,97.26
2022-09-10T08:02:15.808Z,96.91
2022-09-10T08:04:47.129Z,96.76
2022-09-10T08:07:17.543Z,97.37
2022-09-10T08:09:47.762Z,98.42
2022-09-10T08:12:18.471Z,98.42
2022-09-10T08:14:48.676Z,97.70
2022-09-10T08:17:19.393Z,98.17
2022-09-10T08:19:49.885Z,98.18
2022-09-10T08:22:20.144Z,96.90
2022-09-10T08:24:50.266Z,98.63
2022-09-10T08:27:20.569Z,99.59
2022-09-10T08:29:50.846Z,99.64
2022-09-10T08:32:21.919Z,98.67
2022-09-10T08:34:52.331Z,99.25
2022-09-10T08:37:22.675Z,100.00
2022-09-10T08:39:53.057Z,99.96
2022-09-10T08:42:38.741Z,99.64
2022-09-10T08:45:29.879Z,99.59
2022-09-10T08:48:08.813Z,100.00
2022-09-10T08:53:45.182Z,100.00
2022-09-10T08:56:18.801Z,100.00
2022-09-10T08:59:00.990Z,100.00
2022-09-10T09:01:37.046Z,100.00
2022-09-10T09:04:19.162Z,100.00
2022-09-10T09:06:52.544Z,100.00
2022-09-10T09:09:23.299Z,100.00
2022-09-10T09:12:32.873Z,100.00
2022-09-10T09:15:17.941Z,100.00
2022-09-10T09:17:56.982Z,100.00
2022-09-10T09:20:35.813Z,100.00
2022-09-10T09:23:10.073Z,100.00
2022-09-10T09:25:49.268Z,100.00
2022-09-10T09:31:50.542Z,100.00
2022-09-10T09:34:35.703Z,100.00
2022-09-10T09:37:12.026Z,100.00
2022-09-10T09:40:01.578Z,100.00
2022-09-10T09:42:55.849Z,100.00
2022-09-10T09:46:01.856Z,100.00
2022-09-10T09:48:40.235Z,100.00
2022-09-10T09:51:13.351Z,100.00
2022-09-10T09:53:48.964Z,100.00
2022-09-10T09:56:23.526Z,100.00
2022-09-10T09:58:54.279Z,100.00
2022-09-10T10:01:26.574Z,100.00
2022-09-10T10:03:59.460Z,100.00
2022-09-10T10:06:32.374Z,100.00
2022-09-10T10:09:06.361Z,100.00
2022-09-10T10:11:42.521Z,100.00
2022-09-10T10:14:15.911Z,99.80
2022-09-10T10:16:50.814Z,100.00
2022-09-10T10:19:33.539Z,99.03
2022-09-10T10:22:22.363Z,97.85
2022-09-10T10:24:53.168Z,97.85
2022-09-10T10:27:29.292Z,97.46
2022-09-10T10:30:14.786Z,97.95
2022-09-10T10:32:53.866Z,98.05
2022-09-10T10:36:02.238Z,97.28
2022-09-10T10:41:33.099Z,96.45
2022-09-10T10:44:35.137Z,96.37
2022-09-10T10:47:14.133Z,94.62
2022-09-10T10:53:10.699Z,95.28
2022-09-10T10:55:51.252Z,95.28
2022-09-10T10:58:24.515Z,93.09
2022-09-10T11:00:57.675Z,94.29
2022-09-10T11:03:36.556Z,91.92
2022-09-10T11:06:25.147Z,90.56
2022-09-10T11:08:58.651Z,92.32
2022-09-10T11:11:49.932Z,92.13
2022-09-10T11:14:35.264Z,92.13
2022-09-10T11:17:15.067Z,91.19
2022-09-10T11:20:28.586Z,91.19
2022-09-10T11:23:04.052Z,90.65
2022-09-10T11:25:40.542Z,90.12
2022-09-10T11:28:14.019Z,90.48
2022-09-10T11:30:47.915Z,89.75
2022-09-10T11:33:23.843Z,93.09
2022-09-10T11:36:23.954Z,93.09
2022-09-10T11:39:22.640Z,92.45
2022-09-10T11:41:55.116Z,89.83
2022-09-10T11:44:43.693Z,90.23
2022-09-10T11:50:38.099Z,91.22
2022-09-10T11:53:11.333Z,91.71
2022-09-10T11:55:59.413Z,93.65
2022-09-10T11:58:49.128Z,93.05
2022-09-10T12:01:47.366Z,92.68
2022-09-10T12:07:54.642Z,93.28
2022-09-10T12:10:37.102Z,90.79
2022-09-10T12:13:14.745Z,89.25
2022-09-10T12:15:56.905Z,90.74
2022-09-10T12:18:33.038Z,92.15
2022-09-10T12:21:26.771Z,93.15
2022-09-10T12:23:58.799Z,95.50
2022-09-10T12:26:29.965Z,95.50
2022-09-10T12:29:23.459Z,96.18
2022-09-10T12:32:13.421Z,98.71
2022-09-10T12:34:43.791Z,98.71
2022-09-10T12:37:40.567Z,97.10
2022-09-10T12:40:28.358Z,96.81
2022-09-10T12:43:04.314Z,96.81
2022-09-10T12:46:06.186Z,98.49
2022-09-10T12:48:40.029Z,97.98
2022-09-10T12:51:19.211Z,97.98
2022-09-10T12:54:11.800Z,98.07
2022-09-10T12:56:53.758Z,97.73
2022-09-10T12:59:50.809Z,96.18
2022-09-10T13:02:33.238Z,94.63
2022-09-10T13:05:26.189Z,95.93
2022-09-10T13:08:06.707Z,95.93
2022-09-10T13:10:38.014Z,99.27
2022-09-10T13:13:11.142Z,95.30
2022-09-10T13:15:49.438Z,94.59
2022-09-10T13:18:36.934Z,94.33
2022-09-10T13:21:29.411Z,93.27
2022-09-10T13:24:03.059Z,93.27
2022-09-10T13:26:36.509Z,94.32
2022-09-10T13:29:12.860Z,94.47
2022-09-10T13:31:48.648Z,92.69
2022-09-10T13:34:33.451Z,92.69
2022-09-10T13:37:27.551Z,93.93
2022-09-10T13:40:30.870Z,94.57
2022-09-10T13:43:23.827Z,93.85
2022-09-10T13:46:06.486Z,94.67
2022-09-10T13:48:51.472Z,94.67
2022-09-10T13:51:36.630Z,92.68
2022-09-10T13:54:18.823Z,92.68
2022-09-10T13:56:50.549Z,91.56
2022-09-10T13:59:26.933Z,92.47
2022-09-10T14:01:58.184Z,91.06
2022-09-10T14:04:37.926Z,89.69
2022-09-10T14:07:20.646Z,92.03
2022-09-10T14:09:53.756Z,91.75
2022-09-10T14:12:27.211Z,90.84
2022-09-10T14:15:00.878Z,90.84
2022-09-10T14:17:37.563Z,90.84
2022-09-10T14:20:38.105Z,90.84
2022-09-10T14:23:16.468Z,91.91
2022-09-10T14:25:47.203Z,91.91
2022-09-10T14:28:22.934Z,90.58
2022-09-10T14:30:56.272Z,90.58
2022-09-10T14:33:36.893Z,90.65
2022-09-10T14:36:30.692Z,91.26
2022-09-10T14:39:18.675Z,91.23
2022-09-10T14:41:51.585Z,91.23
2022-09-10T14:44:27.658Z,91.73
2022-09-10T14:47:09.658Z,90.59
2022-09-10T14:49:46.379Z,90.40
2022-09-10T14:52:17.130Z,90.40
2022-09-10T14:54:47.464Z,89.96
2022-09-10T14:57:17.830Z,89.96
2022-09-10T14:59:48.189Z,91.00
2022-09-10T15:02:29.590Z,90.07
2022-09-10T15:05:06.032Z,89.08
2022-09-10T15:07:42.317Z,90.64
2022-09-10T15:10:13.815Z,89.60
2022-09-10T15:12:49.181Z,90.98
2022-09-10T15:15:19.662Z,90.54
2022-09-10T15:17:50.769Z,90.04
2022-09-10T15:20:23.659Z,90.04
2022-09-10T15:22:53.061Z,89.75
2022-09-10T15:28:28.130Z,89.21
2022-09-10T15:30:58.786Z,90.71
2022-09-10T15:33:29.187Z,90.36
2022-09-10T15:35:59.353Z,90.36
2022-09-10T15:38:29.686Z,92.27
2022-09-10T15:41:13.993Z,91.00
2022-09-10T15:43:45.010Z,91.68
2022-09-10T15:46:16.828Z,90.17
2022-09-10T15:48:47.386Z,90.17
2022-09-10T15:51:20.831Z,89.82
2022-09-10T15:53:52.429Z,89.77
2022-09-10T15:56:24.310Z,89.77
2022-09-10T15:58:56.847Z,90.47
2022-09-10T16:01:28.265Z,91.31
2022-09-10T16:04:00.675Z,91.31
2022-09-10T16:06:33.275Z,90.74
2022-09-10T16:09:12.190Z,90.78
2022-09-10T16:11:54.017Z,89.93
2022-09-10T16:14:24.468Z,90.91
2022-09-10T16:16:55.276Z,90.86
2022-09-10T16:19:25.572Z,90.80
2022-09-10T16:21:55.746Z,90.22
2022-09-10T16:24:26.090Z,90.22
2022-09-10T16:26:56.646Z,90.76
2022-09-10T16:29:27.057Z,90.74
2022-09-10T16:31:57.603Z,90.74
2022-09-10T16:34:27.874Z,90.60
2022-09-10T16:37:06.633Z,90.25
2022-09-10T16:39:43.422Z,90.19
2022-09-10T16:42:15.869Z,90.23
2022-09-10T16:44:46.195Z,90.17
2022-09-10T16:47:16.596Z,90.17
2022-09-10T16:49:47.725Z,91.12
2022-09-10T16:52:18.020Z,91.12
2022-09-10T16:54:48.423Z,90.11
2022-09-10T16:57:18.737Z,91.15
2022-09-10T16:59:50.477Z,91.15
2022-09-10T17:02:21.076Z,90.25
2022-09-10T17:04:51.634Z,90.87
2022-09-10T17:07:22.939Z,91.21
2022-09-10T17:09:56.369Z,91.21
2022-09-10T17:12:25.236Z,90.95
2022-09-10T17:14:55.619Z,91.90
2022-09-10T17:17:25.872Z,92.00
2022-09-10T17:19:56.266Z,92.32
2022-09-10T17:22:26.543Z,92.32
2022-09-10T17:24:56.934Z,92.48
2022-09-10T17:27:27.410Z,92.68
2022-09-10T17:29:58.333Z,91.88
2022-09-10T17:32:28.952Z,91.88
2022-09-10T17:35:02.561Z,93.55
2022-09-10T17:37:34.037Z,92.65
2022-09-10T17:40:05.870Z,92.58
2022-09-10T17:42:36.534Z,92.58
2022-09-10T17:45:07.701Z,92.54
2022-09-10T17:47:38.323Z,91.92
2022-09-10T17:50:09.269Z,91.92
2022-09-10T17:52:42.037Z,91.90
2022-09-10T17:55:12.416Z,91.90
2022-09-10T17:57:42.632Z,90.75
2022-09-10T18:00:15.906Z,89.88
2022-09-10T18:02:46.422Z,89.88
2022-09-10T18:05:20.616Z,89.27
2022-09-10T18:07:52.605Z,89.89
2022-09-10T18:10:23.047Z,89.89
2022-09-10T18:13:00.202Z,89.49
2022-09-10T18:15:29.365Z,88.92
2022-09-10T18:18:01.639Z,89.19
2022-09-10T18:20:31.982Z,89.19
2022-09-10T18:23:02.432Z,86.36
2022-09-10T18:25:34.984Z,85.42
2022-09-10T18:28:05.649Z,85.42
2022-09-10T18:30:36.034Z,85.43
2022-09-10T18:33:09.264Z,84.78
2022-09-10T18:35:42.818Z,84.78
2022-09-10T18:38:17.322Z,84.60
2022-09-10T18:40:47.922Z,84.71
2022-09-10T18:43:18.414Z,84.71
2022-09-10T18:45:50.515Z,84.71
2022-09-10T18:48:20.977Z,84.48
2022-09-10T18:50:51.657Z,84.37
2022-09-10T18:53:22.223Z,83.60
2022-09-10T18:55:52.773Z,84.54
2022-09-10T18:58:23.148Z,84.54
2022-09-10T19:00:57.979Z,84.77
2022-09-10T19:03:25.544Z,84.77
2022-09-10T19:05:56.045Z,84.50
2022-09-10T19:08:32.076Z,84.27
2022-09-10T19:11:12.269Z,84.41
2022-09-10T19:13:43.434Z,85.43
2022-09-10T19:16:17.078Z,85.43
2022-09-10T19:18:55.537Z,85.28
2022-09-10T19:21:31.509Z,85.97
2022-09-10T19:24:04.261Z,86.48
2022-09-10T19:26:35.567Z,86.35
2022-09-10T19:29:07.597Z,86.18
2022-09-10T19:31:40.012Z,85.89
2022-09-10T19:34:13.517Z,86.48
2022-09-10T19:36:44.799Z,86.14
2022-09-10T19:39:22.693Z,86.14
2022-09-10T19:41:53.098Z,85.94
2022-09-10T19:44:26.974Z,85.67
2022-09-10T19:46:57.500Z,85.11
2022-09-10T19:49:27.799Z,85.12
2022-09-10T19:52:01.861Z,84.59
2022-09-10T19:54:32.899Z,84.59
2022-09-10T19:57:05.120Z,83.72
2022-09-10T19:59:39.800Z,83.72
2022-09-10T20:05:13.503Z,82.70
2022-09-10T20:07:46.171Z,82.90
2022-09-10T20:10:16.733Z,82.22
2022-09-10T20:12:47.138Z,82.22
2022-09-10T20:15:18.037Z,82.88
2022-09-10T20:17:48.589Z,81.71
2022-09-10T20:20:19.160Z,81.71
2022-09-10T20:22:49.382Z,82.17
2022-09-10T20:25:19.508Z,82.17
2022-09-10T20:27:49.909Z,81.91
2022-09-10T20:30:20.596Z,80.60
2022-09-10T20:32:50.767Z,79.60
2022-09-10T20:35:20.956Z,79.60
2022-09-10T20:37:51.873Z,77.20
2022-09-10T20:40:22.553Z,77.20
2022-09-10T20:42:52.838Z,76.10
2022-09-10T20:45:22.979Z,74.33
2022-09-10T20:47:53.583Z,73.11
2022-09-10T20:50:23.817Z,70.82
2022-09-10T20:52:54.230Z,70.82
2022-09-10T20:55:24.836Z,69.43
2022-09-10T20:57:55.227Z,67.48
2022-09-10T21:00:25.532Z,67.01
2022-09-10T21:02:55.797Z,66.77
2022-09-10T21:05:26.211Z,66.67
2022-09-10T21:07:56.437Z,66.30
2022-09-10T21:10:26.724Z,67.00
2022-09-10T21:12:57.066Z,66.27
2022-09-10T21:15:27.593Z,66.27
2022-09-10T21:17:58.212Z,65.37
2022-09-10T21:20:28.676Z,65.31
2022-09-10T21:22:58.992Z,64.69
2022-09-10T21:25:29.264Z,63.79
2022-09-10T21:27:59.723Z,63.79
2022-09-10T21:30:30.147Z,63.31
2022-09-10T21:33:00.479Z,62.66
2022-09-10T21:35:30.772Z,62.73
2022-09-10T21:38:00.993Z,62.62
2022-09-10T21:40:31.290Z,62.62
2022-09-10T21:43:01.447Z,62.45
2022-09-10T21:45:33.300Z,62.49
2022-09-10T21:48:03.678Z,62.25
2022-09-10T21:50:33.923Z,61.29
2022-09-10T21:53:04.148Z,61.29
2022-09-10T21:55:34.618Z,61.32
2022-09-10T21:58:05.168Z,61.44
2022-09-10T22:00:35.808Z,61.36
2022-09-10T22:03:06.081Z,60.80
2022-09-10T22:05:36.783Z,60.57
2022-09-10T22:08:08.511Z,60.45
2022-09-10T22:10:39.808Z,60.45
2022-09-10T22:13:10.415Z,60.03
2022-09-10T22:15:42.064Z,60.35
2022-09-10T22:18:12.770Z,60.02
2022-09-10T22:20:43.012Z,59.96
2022-09-10T22:23:13.298Z,59.25
2022-09-10T22:25:43.661Z,59.25
2022-09-10T22:28:14.850Z,59.56
2022-09-10T22:30:45.247Z,59.27
2022-09-10T22:33:15.415Z,59.27
2022-09-10T22:35:45.666Z,59.64
2022-09-10T22:38:19.538Z,59.97
2022-09-10T22:40:47.925Z,59.63
2022-09-10T22:43:18.316Z,59.90
2022-09-10T22:45:48.581Z,59.30
2022-09-10T22:48:18.827Z,59.30
2022-09-10T22:50:49.149Z,59.35
2022-09-10T22:53:19.387Z,59.92
2022-09-10T22:55:49.992Z,60.44
2022-09-10T22:58:20.234Z,60.44
2022-09-10T23:00:51.333Z,60.24
2022-09-10T23:03:22.251Z,60.11
2022-09-10T23:05:55.436Z,60.11
2022-09-10T23:08:25.752Z,59.77
2022-09-10T23:10:56.263Z,59.83
2022-09-10T23:13:26.492Z,60.07
2022-09-10T23:15:56.746Z,59.98
2022-09-10T23:18:27.131Z,59.56
2022-09-10T23:21:03.010Z,59.56
2022-09-10T23:23:33.925Z,60.25
2022-09-10T23:26:10.954Z,60.85
2022-09-10T23:28:41.789Z,60.73
2022-09-10T23:31:15.277Z,60.73
2022-09-10T23:33:47.821Z,60.77
2022-09-10T23:36:18.707Z,60.36
2022-09-10T23:38:49.203Z,59.92
2022-09-10T23:41:19.494Z,60.73
2022-09-10T23:43:49.768Z,60.32
2022-09-10T23:46:20.168Z,60.32
2022-09-10T23:48:50.453Z,61.73
2022-09-10T23:51:21.329Z,60.67
2022-09-10T23:53:51.774Z,60.82
2022-09-10T23:56:23.720Z,60.82
2022-09-10T23:58:54.045Z,61.13
